Time;durP1;ratioP1;P1;durP2;ratioP2;P2;SDS_P1;SDS_P2;PMS_P1;PMS_P2;Temp;Humidity;BMP_temperature;BMP_pressure;BME280_temperature;BME280_humidity;BME280_pressure;Samples;Min_cycle;Max_cycle;Signal;HPM_P1;HPM_P2
2022/05/06 00:00:14;;;;;;;;;;;12.90;1.00;;;;;;10253573;28;84771;-48
2022/05/06 00:05:15;;;;;;;;;;;12.80;1.00;;;;;;10288820;28;84683;-48
2022/05/06 00:10:15;;;;;;;;;;;12.70;1.00;;;;;;10269523;28;85697;-51
2022/05/06 00:15:16;;;;;;;;;;;12.60;1.00;;;;;;10289483;28;84886;-48
2022/05/06 00:20:17;;;;;;;;;;;12.60;1.00;;;;;;10288536;28;84199;-48
2022/05/06 00:25:17;;;;;;;;;;;12.50;1.00;;;;;;10289283;28;84257;-46
2022/05/06 00:30:18;;;;;;;;;;;12.40;1.00;;;;;;10270431;28;84272;-53
2022/05/06 00:35:19;;;;;;;;;;;12.40;1.00;;;;;;10270137;28;87294;-50
2022/05/06 00:40:19;;;;;;;;;;;12.30;1.00;;;;;;10269848;28;86029;-47
2022/05/06 00:45:21;;;;;;;;;;;12.20;1.00;;;;;;10269689;28;86947;-48
2022/05/06 00:50:21;;;;;;;;;;;12.20;1.00;;;;;;10270758;28;86647;-50
2022/05/06 00:55:23;;;;;;;;;;;12.00;1.00;;;;;;10288300;28;84819;-47
2022/05/06 01:00:23;;;;;;;;;;;12.00;1.00;;;;;;10288239;28;84275;-48
2022/05/06 01:05:24;;;;;;;;;;;12.10;1.00;;;;;;10270726;28;86487;-48
2022/05/06 01:10:25;;;;;;;;;;;12.10;1.00;;;;;;10270160;28;86600;-48
2022/05/06 01:15:27;;;;;;;;;;;12.00;1.00;;;;;;10277287;28;85808;-47
2022/05/06 01:20:51;;;;;;;;;;;11.90;1.00;;;;;;10276320;28;86461;-47
2022/05/06 01:25:52;;;;;;;;;;;11.80;1.00;;;;;;10295570;28;84859;-47
2022/05/06 01:31:00;;;;;;;;;;;11.80;1.00;;;;;;10276638;28;85022;-48
2022/05/06 01:36:02;;;;;;;;;;;11.90;1.00;;;;;;10293077;28;84870;-46
2022/05/06 01:41:03;;;;;;;;;;;11.80;1.00;;;;;;10274591;28;85774;-48
2022/05/06 01:46:14;;;;;;;;;;;11.70;1.00;;;;;;10274750;28;86840;-48
2022/05/06 01:51:17;;;;;;;;;;;11.70;1.00;;;;;;10274431;28;86784;-50
2022/05/06 01:56:18;;;;;;;;;;;11.40;1.00;;;;;;10281763;28;85896;-51
2022/05/06 02:01:20;;;;;;;;;;;11.30;1.00;;;;;;10286365;28;86011;-53
2022/05/06 02:06:22;;;;;;;;;;;11.20;1.00;;;;;;10275777;28;87020;-50
2022/05/06 02:11:31;;;;;;;;;;;11.20;1.00;;;;;;10273524;28;86813;-52
2022/05/06 02:16:32;;;;;;;;;;;11.00;1.00;;;;;;10292897;28;84574;-50
2022/05/06 02:21:48;;;;;;;;;;;10.90;1.00;;;;;;10291443;28;84292;-52
2022/05/06 02:26:59;;;;;;;;;;;10.60;1.00;;;;;;10274383;28;86312;-47
2022/05/06 02:37:20;;;;;;;;;;;10.50;1.00;;;;;;10264973;28;86815;-48
2022/05/06 02:42:25;;;;;;;;;;;10.50;1.00;;;;;;10292504;22;87069;-53
2022/05/06 02:47:26;;;;;;;;;;;10.40;1.00;;;;;;10206956;28;86977;-48
2022/05/06 02:52:27;;;;;;;;;;;10.30;1.00;;;;;;10217763;28;86285;-51
2022/05/06 02:57:28;;;;;;;;;;;10.40;1.00;;;;;;10230517;28;86749;-54
2022/05/06 03:02:29;;;;;;;;;;;10.30;1.00;;;;;;10202127;28;86828;-52
2022/05/06 03:07:35;;;;;;;;;;;10.30;1.00;;;;;;10184885;28;86037;-49
2022/05/06 03:12:37;;;;;;;;;;;10.20;6.10;;;;;;10189531;28;86599;-53
2022/05/06 03:17:44;;;;;;;;;;;10.30;16.20;;;;;;10188683;28;85755;-49
2022/05/06 03:22:46;;;;;;;;;;;10.30;23.00;;;;;;10197290;28;86191;-54
2022/05/06 03:27:59;;;;;;;;;;;10.30;18.80;;;;;;10206923;28;84489;-54
2022/05/06 03:32:59;;;;;;;;;;;10.30;24.90;;;;;;10206113;28;84216;-53
2022/05/06 03:38:02;;;;;;;;;;;10.30;26.20;;;;;;10188073;28;85730;-54
2022/05/06 03:43:04;;;;;;;;;;;10.30;15.00;;;;;;10187863;28;86842;-51
2022/05/06 03:48:06;;;;;;;;;;;10.20;32.60;;;;;;10188758;28;86481;-50
2022/05/06 03:53:11;;;;;;;;;;;10.20;49.60;;;;;;10187506;28;85795;-52
2022/05/06 03:58:13;;;;;;;;;;;10.10;53.80;;;;;;10181286;28;86776;-53
2022/05/06 04:03:14;;;;;;;;;;;10.10;76.90;;;;;;10178850;28;85881;-52
2022/05/06 04:08:15;;;;;;;;;;;10.10;91.70;;;;;;10187653;28;85859;-51
2022/05/06 04:13:19;;;;;;;;;;;10.20;86.90;;;;;;10207477;28;87142;-49
2022/05/06 04:18:20;;;;;;;;;;;10.20;70.70;;;;;;10226208;28;85701;-51
2022/05/06 04:23:30;;;;;;;;;;;10.20;77.00;;;;;;10198809;28;87258;-53
2022/05/06 04:28:32;;;;;;;;;;;10.20;54.20;;;;;;10195826;28;85759;-53
2022/05/06 04:33:37;;;;;;;;;;;10.30;53.40;;;;;;10202786;28;86606;-53
2022/05/06 04:38:39;;;;;;;;;;;10.20;43.80;;;;;;10204992;28;86901;-55
2022/05/06 04:43:41;;;;;;;;;;;10.20;26.90;;;;;;10213443;28;86097;-52
2022/05/06 04:48:41;;;;;;;;;;;10.00;30.20;;;;;;10221319;28;84568;-50
2022/05/06 04:53:46;;;;;;;;;;;9.90;49.10;;;;;;10199421;28;86930;-51
2022/05/06 04:58:47;;;;;;;;;;;10.00;28.20;;;;;;10184890;28;86211;-51
2022/05/06 05:03:59;;;;;;;;;;;10.00;20.50;;;;;;10186307;28;86722;-53
2022/05/06 05:09:02;;;;;;;;;;;9.90;29.30;;;;;;10185956;28;86632;-53
2022/05/06 05:14:06;;;;;;;;;;;9.90;31.50;;;;;;10184700;28;85873;-50
2022/05/06 05:19:11;;;;;;;;;;;10.00;25.60;;;;;;10200014;28;85968;-51
2022/05/06 05:24:18;;;;;;;;;;;10.00;19.90;;;;;;10225641;28;86827;-48
2022/05/06 05:29:20;;;;;;;;;;;10.00;33.60;;;;;;10225455;28;85815;-53
2022/05/06 05:34:21;;;;;;;;;;;10.10;28.70;;;;;;10228245;28;87173;-54
2022/05/06 05:39:23;;;;;;;;;;;10.30;18.00;;;;;;10201570;28;85868;-52
2022/05/06 05:49:48;;;;;;;;;;;10.80;1.00;;;;;;10186507;28;85652;-52
2022/05/06 05:54:49;;;;;;;;;;;11.10;1.00;;;;;;10186935;28;85793;-51
2022/05/06 05:59:51;;;;;;;;;;;11.50;1.00;;;;;;10190407;28;85973;-54
2022/05/06 06:04:55;;;;;;;;;;;11.80;1.00;;;;;;10193136;28;86457;-54
2022/05/06 06:09:56;;;;;;;;;;;12.10;1.00;;;;;;10248158;28;84978;-50
2022/05/06 06:14:57;;;;;;;;;;;12.50;1.00;;;;;;10232625;28;86776;-53
2022/05/06 06:19:59;;;;;;;;;;;12.80;1.00;;;;;;10191992;28;86973;-55
2022/05/06 06:25:00;;;;;;;;;;;13.10;1.00;;;;;;10191775;28;85855;-54
2022/05/06 06:30:02;;;;;;;;;;;13.50;1.00;;;;;;10191753;28;86309;-54
2022/05/06 06:35:03;;;;;;;;;;;13.80;1.00;;;;;;10213010;28;86260;-53
2022/05/06 06:40:11;;;;;;;;;;;14.20;1.00;;;;;;10190827;28;86900;-52
2022/05/06 06:45:13;;;;;;;;;;;14.60;1.00;;;;;;10205544;28;86052;-52
2022/05/06 06:50:26;;;;;;;;;;;15.10;1.00;;;;;;10248899;28;84383;-54
2022/05/06 06:55:45;;;;;;;;;;;15.40;99.90;;;;;;10230899;28;84565;-52
2022/05/06 07:00:45;;;;;;;;;;;15.90;99.90;;;;;;10207511;28;85026;-52
2022/05/06 07:16:24;;;;;;;;;;;17.80;1.00;;;;;;10207117;28;84320;-50
2022/05/06 07:21:25;;;;;;;;;;;18.60;1.00;;;;;;10208684;28;84529;-54
2022/05/06 07:26:26;;;;;;;;;;;19.20;1.00;;;;;;10247845;28;84266;-51
2022/05/06 07:31:27;;;;;;;;;;;19.50;1.00;;;;;;10224986;28;84854;-52
2022/05/06 07:36:27;;;;;;;;;;;20.20;99.90;;;;;;10214668;28;84269;-52
2022/05/06 07:41:28;;;;;;;;;;;20.40;1.00;;;;;;10205342;28;84187;-50
2022/05/06 07:46:28;;;;;;;;;;;20.80;1.00;;;;;;10223247;28;84786;-53
2022/05/06 07:51:29;;;;;;;;;;;21.30;1.00;;;;;;10205780;28;84124;-55
2022/05/06 07:56:29;;;;;;;;;;;22.10;1.00;;;;;;10189048;28;84864;-54
2022/05/06 08:06:49;;;;;;;;;;;22.70;99.90;;;;;;10188803;28;85867;-52
2022/05/06 08:11:49;;;;;;;;;;;23.10;1.00;;;;;;10223755;28;100068;-54
2022/05/06 08:16:50;;;;;;;;;;;23.60;1.00;;;;;;10245844;28;84422;-52
2022/05/06 08:21:51;;;;;;;;;;;24.00;99.90;;;;;;10193405;28;86052;-55
2022/05/06 08:26:52;;;;;;;;;;;24.00;99.90;;;;;;10205674;28;84133;-54
2022/05/06 08:31:53;;;;;;;;;;;24.10;99.90;;;;;;10187894;28;84993;-52
2022/05/06 08:36:53;;;;;;;;;;;24.00;99.90;;;;;;10204306;28;84066;-51
2022/05/06 08:41:55;;;;;;;;;;;24.20;99.90;;;;;;10205338;28;84109;-50
2022/05/06 08:52:15;;;;;;;;;;;24.30;1.00;;;;;;10327337;28;84802;-45
2022/05/06 08:57:16;;;;;;;;;;;25.30;1.00;;;;;;10336241;28;84700;-43
2022/05/06 09:02:16;;;;;;;;;;;26.00;1.00;;;;;;10361976;28;83955;-44
2022/05/06 09:07:20;;;;;;;;;;;26.20;1.00;;;;;;10336277;28;85093;-45
2022/05/06 09:12:41;;;;;;;;;;;26.00;1.00;;;;;;10336253;28;85095;-44
2022/05/06 09:17:42;;;;;;;;;;;26.00;1.00;;;;;;10328752;28;84178;-45
2022/05/06 09:22:42;;;;;;;;;;;26.80;1.00;;;;;;10345684;28;85121;-46
2022/05/06 09:27:52;;;;;;;;;;;27.00;1.00;;;;;;10346305;28;84959;-43
2022/05/06 09:32:53;;;;;;;;;;;25.50;99.90;;;;;;10346281;28;84863;-45
2022/05/06 09:37:54;;;;;;;;;;;24.90;1.00;;;;;;10334076;28;84106;-44
2022/05/06 09:42:54;;;;;;;;;;;24.00;1.00;;;;;;10361198;28;84138;-46
2022/05/06 09:47:58;;;;;;;;;;;25.10;1.00;;;;;;10375088;28;84952;-48
2022/05/06 09:53:03;;;;;;;;;;;26.50;1.00;;;;;;10328388;28;84228;-46
2022/05/06 09:58:03;;;;;;;;;;;26.00;1.00;;;;;;10334779;28;84186;-46
2022/05/06 10:03:05;;;;;;;;;;;25.00;1.00;;;;;;10327711;28;85856;-45
2022/05/06 10:08:08;;;;;;;;;;;23.70;1.00;;;;;;10356673;28;84248;-46
2022/05/06 10:13:19;;;;;;;;;;;22.80;1.00;;;;;;10345902;28;84349;-44
2022/05/06 10:18:33;;;;;;;;;;;22.00;99.90;;;;;;10332947;28;84412;-47
2022/05/06 10:23:49;;;;;;;;;;;21.40;1.00;;;;;;10343338;28;85910;-46
2022/05/06 10:34:16;;;;;;;;;;;23.30;1.00;;;;;;10344496;28;85028;-46
2022/05/06 10:39:22;;;;;;;;;;;24.90;4.50;;;;;;10365849;28;85360;-46
2022/05/06 10:44:35;;;;;;;;;;;26.60;1.00;;;;;;10352006;28;84134;-46
2022/05/06 10:49:39;;;;;;;;;;;27.40;99.90;;;;;;10372062;28;84946;-49
2022/05/06 10:54:40;;;;;;;;;;;27.50;99.90;;;;;;10314492;28;84201;-48
2022/05/06 10:59:47;;;;;;;;;;;28.30;50.20;;;;;;10330729;28;84220;-46
2022/05/06 11:04:50;;;;;;;;;;;26.40;1.00;;;;;;10332427;28;86420;-44
2022/05/06 11:09:51;;;;;;;;;;;24.50;1.00;;;;;;10346611;28;85550;-47
2022/05/06 11:14:55;;;;;;;;;;;23.80;99.90;;;;;;10354255;28;84674;-45
2022/05/06 11:19:55;;;;;;;;;;;24.80;99.90;;;;;;10347712;28;85147;-47
2022/05/06 11:24:56;;;;;;;;;;;26.10;99.90;;;;;;10352254;28;84010;-45
2022/05/06 11:29:57;;;;;;;;;;;26.60;27.00;;;;;;10346690;28;85630;-45
2022/05/06 11:34:58;;;;;;;;;;;25.60;1.00;;;;;;10349942;28;84200;-45
2022/05/06 11:50:39;;;;;;;;;;;28.10;1.00;;;;;;10346018;28;84856;-45
2022/05/06 11:55:43;;;;;;;;;;;28.90;1.00;;;;;;10345699;28;84806;-47
2022/05/06 12:00:44;;;;;;;;;;;29.40;1.00;;;;;;10320822;28;84257;-44
2022/05/06 12:05:57;;;;;;;;;;;28.30;1.00;;;;;;10359948;28;86697;-45
2022/05/06 12:11:03;;;;;;;;;;;28.00;1.00;;;;;;10366475;28;84415;-47
2022/05/06 12:16:08;;;;;;;;;;;28.90;1.00;;;;;;10360453;28;84267;-46
2022/05/06 12:21:18;;;;;;;;;;;28.90;1.00;;;;;;10365853;28;85168;-47
2022/05/06 12:26:37;;;;;;;;;;;28.50;1.00;;;;;;10359323;28;84630;-46
2022/05/06 12:31:38;;;;;;;;;;;28.60;1.00;;;;;;10342690;28;84775;-46
2022/05/06 12:36:38;;;;;;;;;;;29.60;1.00;;;;;;10359559;28;91421;-45
2022/05/06 12:41:39;;;;;;;;;;;29.60;1.00;;;;;;10366900;28;84970;-47
2022/05/06 12:46:41;;;;;;;;;;;30.10;1.00;;;;;;10352604;28;84136;-47
2022/05/06 12:51:42;;;;;;;;;;;29.80;1.00;;;;;;10326605;28;84721;-46
2022/05/06 12:56:43;;;;;;;;;;;30.30;1.00;;;;;;10327838;28;84748;-49
2022/05/06 13:01:43;;;;;;;;;;;30.80;1.00;;;;;;10330731;28;86550;-48
2022/05/06 13:06:44;;;;;;;;;;;30.60;1.00;;;;;;10328078;28;85105;-47
2022/05/06 13:11:44;;;;;;;;;;;29.80;1.00;;;;;;10326545;28;85016;-45
2022/05/06 13:16:45;;;;;;;;;;;29.50;1.00;;;;;;10364671;28;84750;-46
2022/05/06 13:21:45;;;;;;;;;;;29.50;1.00;;;;;;10367066;28;84100;-46
2022/05/06 13:26:47;;;;;;;;;;;29.80;1.00;;;;;;10329268;28;84136;-49
2022/05/06 13:31:47;;;;;;;;;;;30.00;1.00;;;;;;10326305;28;84783;-46
2022/05/06 13:36:48;;;;;;;;;;;30.00;1.00;;;;;;10341810;28;85034;-46
2022/05/06 13:41:48;;;;;;;;;;;30.60;1.00;;;;;;10346658;28;84894;-45
2022/05/06 13:46:51;;;;;;;;;;;31.30;1.00;;;;;;10332222;28;84224;-47
2022/05/06 13:51:51;;;;;;;;;;;31.40;1.00;;;;;;10315743;28;84875;-48
2022/05/06 14:02:11;;;;;;;;;;;30.40;1.00;;;;;;10366716;28;84991;-45
2022/05/06 14:07:11;;;;;;;;;;;31.30;1.00;;;;;;10347082;28;86282;-44
2022/05/06 14:12:12;;;;;;;;;;;30.50;1.00;;;;;;10348281;28;85920;-47
2022/05/06 14:17:12;;;;;;;;;;;29.30;1.00;;;;;;10307889;28;87049;-44
2022/05/06 14:22:13;;;;;;;;;;;28.30;1.00;;;;;;10330480;28;85790;-46
2022/05/06 14:27:17;;;;;;;;;;;27.40;1.00;;;;;;10371930;28;84175;-44
2022/05/06 14:32:18;;;;;;;;;;;26.80;1.00;;;;;;10372851;28;84264;-44
2022/05/06 14:37:18;;;;;;;;;;;25.70;1.00;;;;;;10356708;28;85836;-48
2022/05/06 14:42:19;;;;;;;;;;;25.50;1.00;;;;;;10372287;28;84964;-45
2022/05/06 14:47:19;;;;;;;;;;;25.30;1.00;;;;;;10356080;22;84641;-49
2022/05/06 14:52:23;;;;;;;;;;;25.00;1.00;;;;;;10312176;28;86348;-47
2022/05/06 14:57:24;;;;;;;;;;;25.00;1.00;;;;;;10289430;28;85734;-49
2022/05/06 15:02:24;;;;;;;;;;;24.80;1.00;;;;;;10274651;28;84421;-52
2022/05/06 15:07:25;;;;;;;;;;;24.70;1.00;;;;;;10238901;28;84875;-52
2022/05/06 15:12:26;;;;;;;;;;;24.40;1.00;;;;;;10226719;28;85125;-51
2022/05/06 15:17:26;;;;;;;;;;;24.50;1.00;;;;;;10245617;28;85010;-50
2022/05/06 15:22:32;;;;;;;;;;;24.50;1.00;;;;;;10252244;28;84394;-48
2022/05/06 15:27:33;;;;;;;;;;;24.40;1.00;;;;;;10245017;28;85916;-48
2022/05/06 15:32:33;;;;;;;;;;;24.00;1.00;;;;;;10249663;28;84240;-48
2022/05/06 15:37:34;;;;;;;;;;;24.20;1.00;;;;;;10247387;28;84303;-48
2022/05/06 15:42:34;;;;;;;;;;;24.20;1.00;;;;;;10221415;28;87234;-47
2022/05/06 15:47:35;;;;;;;;;;;24.20;1.00;;;;;;10246373;28;85080;-47
2022/05/06 15:52:35;;;;;;;;;;;23.90;1.00;;;;;;10252706;28;84260;-51
2022/05/06 15:57:36;;;;;;;;;;;23.60;1.00;;;;;;10268185;28;84920;-51
2022/05/06 16:02:36;;;;;;;;;;;23.50;1.00;;;;;;10264321;28;84986;-52
2022/05/06 16:07:38;;;;;;;;;;;23.50;1.00;;;;;;10246184;28;84499;-51
2022/05/06 16:12:39;;;;;;;;;;;23.30;1.00;;;;;;10246494;28;84163;-57
2022/05/06 16:17:39;;;;;;;;;;;23.10;1.00;;;;;;10246439;28;84091;-51
2022/05/06 16:22:40;;;;;;;;;;;23.00;1.00;;;;;;10246030;28;85294;-53
2022/05/06 16:27:41;;;;;;;;;;;22.80;1.00;;;;;;10245872;28;84121;-57
2022/05/06 16:32:41;;;;;;;;;;;23.00;1.00;;;;;;10230370;28;85114;-55
2022/05/06 16:37:42;;;;;;;;;;;23.20;1.00;;;;;;10245722;28;84804;-55
2022/05/06 16:42:44;;;;;;;;;;;23.10;1.00;;;;;;10245561;28;84177;-57
2022/05/06 16:47:45;;;;;;;;;;;23.10;1.00;;;;;;10241732;28;84300;-56
2022/05/06 16:52:45;;;;;;;;;;;22.90;1.00;;;;;;10235688;28;84376;-52
2022/05/06 16:57:46;;;;;;;;;;;22.80;1.00;;;;;;10244208;28;84189;-52
2022/05/06 17:02:47;;;;;;;;;;;22.80;1.00;;;;;;10244189;28;84253;-55
2022/05/06 17:07:48;;;;;;;;;;;22.60;1.00;;;;;;10243416;28;84874;-55
2022/05/06 17:12:49;;;;;;;;;;;22.50;1.00;;;;;;10243868;28;85808;-54
2022/05/06 17:17:50;;;;;;;;;;;22.50;1.00;;;;;;10226333;28;84058;-53
2022/05/06 17:22:50;;;;;;;;;;;22.40;1.00;;;;;;10244356;28;84975;-57
2022/05/06 17:27:51;;;;;;;;;;;22.40;1.00;;;;;;10243762;28;84054;-56
2022/05/06 17:32:51;;;;;;;;;;;22.40;1.00;;;;;;10243571;28;85030;-56
2022/05/06 17:37:52;;;;;;;;;;;22.40;1.00;;;;;;10241286;28;96816;-55
2022/05/06 17:42:53;;;;;;;;;;;22.30;1.00;;;;;;10241599;28;84564;-55
2022/05/06 17:47:57;;;;;;;;;;;22.10;20.90;;;;;;10243138;28;84523;-52
2022/05/06 17:52:59;;;;;;;;;;;21.90;27.90;;;;;;10249772;28;84980;-58
2022/05/06 17:58:00;;;;;;;;;;;21.70;99.90;;;;;;10253515;28;84152;-48
2022/05/06 18:03:00;;;;;;;;;;;21.60;99.90;;;;;;10247484;28;84276;-55
2022/05/06 18:08:01;;;;;;;;;;;21.40;99.90;;;;;;10237521;28;84159;-47
2022/05/06 18:13:01;;;;;;;;;;;21.30;99.90;;;;;;10246203;28;85636;-47
2022/05/06 18:18:02;;;;;;;;;;;21.20;99.90;;;;;;10230775;28;84962;-53
2022/05/06 18:23:03;;;;;;;;;;;21.10;99.90;;;;;;10249359;28;85332;-49
2022/05/06 18:28:04;;;;;;;;;;;21.00;1.00;;;;;;10247821;28;85073;-49
2022/05/06 18:33:19;;;;;;;;;;;20.90;1.00;;;;;;10207803;28;86936;-48
2022/05/06 18:38:21;;;;;;;;;;;20.80;1.00;;;;;;10250500;28;84920;-57
2022/05/06 18:43:21;;;;;;;;;;;20.70;1.00;;;;;;10228979;28;85455;-48
2022/05/06 18:48:22;;;;;;;;;;;20.60;1.00;;;;;;10247458;28;85162;-47
2022/05/06 18:53:23;;;;;;;;;;;20.50;99.90;;;;;;10243676;28;85130;-53
2022/05/06 18:58:24;;;;;;;;;;;20.50;99.90;;;;;;10251035;28;84541;-51
2022/05/06 19:03:24;;;;;;;;;;;20.40;1.00;;;;;;10250312;28;84601;-52
2022/05/06 19:08:25;;;;;;;;;;;20.30;1.00;;;;;;10249214;28;84232;-54
2022/05/06 19:13:25;;;;;;;;;;;20.20;1.00;;;;;;10249778;28;84501;-59
2022/05/06 19:18:26;;;;;;;;;;;20.10;99.90;;;;;;10249668;28;84348;-63
2022/05/06 19:28:46;;;;;;;;;;;19.90;1.00;;;;;;10247774;28;85906;-64
2022/05/06 19:33:47;;;;;;;;;;;19.90;99.90;;;;;;10233781;28;85987;-62
2022/05/06 19:38:49;;;;;;;;;;;19.80;99.90;;;;;;10271003;28;84928;-62
2022/05/06 19:43:51;;;;;;;;;;;19.60;1.00;;;;;;10267448;28;84107;-55
2022/05/06 19:48:52;;;;;;;;;;;19.50;99.90;;;;;;10263856;28;87860;-62
2022/05/06 19:53:52;;;;;;;;;;;19.30;1.00;;;;;;10249556;28;84105;-57
2022/05/06 19:58:53;;;;;;;;;;;19.10;1.00;;;;;;10278381;28;84878;-61
2022/05/06 20:03:53;;;;;;;;;;;19.00;1.00;;;;;;10263406;28;83987;-60
2022/05/06 20:08:54;;;;;;;;;;;18.90;1.00;;;;;;10248152;28;84799;-57
2022/05/06 20:13:56;;;;;;;;;;;18.80;99.90;;;;;;10248984;28;84119;-59
2022/05/06 20:18:57;;;;;;;;;;;18.60;1.00;;;;;;10246256;28;84228;-54
2022/05/06 20:23:57;;;;;;;;;;;18.50;1.00;;;;;;10248622;28;84088;-54
2022/05/06 20:28:58;;;;;;;;;;;18.40;63.00;;;;;;10248329;28;84222;-55
2022/05/06 20:33:59;;;;;;;;;;;18.20;99.90;;;;;;10229676;28;85918;-57
2022/05/06 20:38:59;;;;;;;;;;;18.20;99.90;;;;;;10248771;28;84294;-59
2022/05/06 20:44:00;;;;;;;;;;;18.20;1.00;;;;;;10259823;22;85276;-61
2022/05/06 20:49:00;;;;;;;;;;;18.00;1.00;;;;;;10190959;28;84251;-60
2022/05/06 20:54:01;;;;;;;;;;;17.90;1.00;;;;;;10206448;28;84930;-62
2022/05/06 20:59:20;;;;;;;;;;;17.80;1.00;;;;;;10189303;28;86876;-58
2022/05/06 21:04:20;;;;;;;;;;;17.80;1.00;;;;;;10205351;28;85986;-61
2022/05/06 21:14:40;;;;;;;;;;;17.60;1.00;;;;;;10204478;28;84244;-61
2022/05/06 21:19:40;;;;;;;;;;;17.50;1.00;;;;;;10187218;28;87108;-61
2022/05/06 21:24:41;;;;;;;;;;;17.50;41.70;;;;;;10204507;28;84127;-61
2022/05/06 21:29:41;;;;;;;;;;;17.40;99.90;;;;;;10208062;28;84810;-59
2022/05/06 21:34:42;;;;;;;;;;;17.30;99.90;;;;;;10207738;28;84180;-61
2022/05/06 21:39:42;;;;;;;;;;;17.20;99.90;;;;;;10211659;28;84128;-61
2022/05/06 21:44:43;;;;;;;;;;;17.20;99.90;;;;;;10211369;28;85824;-60
2022/05/06 21:49:44;;;;;;;;;;;17.00;99.90;;;;;;10212427;28;85010;-62
2022/05/06 21:54:45;;;;;;;;;;;17.00;99.90;;;;;;10211029;28;84124;-61
2022/05/06 21:59:46;;;;;;;;;;;17.00;99.90;;;;;;10211084;28;84623;-60
2022/05/06 22:04:49;;;;;;;;;;;17.10;99.90;;;;;;10214698;28;85119;-63
2022/05/06 22:09:49;;;;;;;;;;;17.00;99.90;;;;;;10250588;28;85227;-60
2022/05/06 22:14:50;;;;;;;;;;;16.90;99.90;;;;;;10250557;28;85224;-61
2022/05/06 22:19:50;;;;;;;;;;;16.80;99.90;;;;;;10251358;28;84900;-60
2022/05/06 22:24:52;;;;;;;;;;;16.80;99.90;;;;;;10207908;28;84749;-59
2022/05/06 22:29:53;;;;;;;;;;;16.80;99.90;;;;;;10211436;28;84624;-60
2022/05/06 22:34:53;;;;;;;;;;;16.70;99.90;;;;;;10211464;28;84178;-58
2022/05/06 22:39:54;;;;;;;;;;;16.60;1.00;;;;;;10211454;28;84259;-60
2022/05/06 22:50:35;;;;;;;;;;;16.50;1.00;;;;;;10086904;29;84172;-61
2022/05/06 22:55:35;;;;;;;;;;;16.40;1.00;;;;;;10164794;28;85141;-59
2022/05/06 23:00:36;;;;;;;;;;;16.40;1.00;;;;;;10209981;28;84832;-60
2022/05/06 23:05:36;;;;;;;;;;;16.30;1.00;;;;;;10209118;28;85108;-59
2022/05/06 23:10:37;;;;;;;;;;;16.20;1.00;;;;;;10209242;28;84909;-59
2022/05/06 23:15:38;;;;;;;;;;;16.10;1.00;;;;;;10209713;28;84103;-56
2022/05/06 23:20:39;;;;;;;;;;;16.10;1.00;;;;;;10246398;28;85427;-59
2022/05/06 23:25:39;;;;;;;;;;;16.00;1.00;;;;;;10250497;28;84264;-58
2022/05/06 23:30:40;;;;;;;;;;;16.00;1.00;;;;;;10248982;28;85391;-58
2022/05/06 23:41:01;;;;;;;;;;;15.80;1.00;;;;;;10208169;28;84811;-58
2022/05/06 23:46:01;;;;;;;;;;;15.70;1.00;;;;;;10208211;28;84091;-58
2022/05/06 23:51:02;;;;;;;;;;;15.60;1.00;;;;;;10207261;28;84418;-58
2022/05/06 23:56:02;;;;;;;;;;;15.60;1.00;;;;;;10207517;28;84972;-58
